sensor_id;sensor_type;location;lat;lon;timestamp;pressure;altitude;pressure_sealevel;temperature;humidity
8318;BME280;4196;48.926;8.964;2023-06-26T00:00:21;98915.91;;;15.55;96.18
8318;BME280;4196;48.926;8.964;2023-06-26T00:03:08;98923.69;;;15.57;96.50
8318;BME280;4196;48.926;8.964;2023-06-26T00:05:56;98929.09;;;15.51;97.54
8318;BME280;4196;48.926;8.964;2023-06-26T00:08:46;98936.88;;;15.52;97.77
8318;BME280;4196;48.926;8.964;2023-06-26T00:11:33;98949.97;;;15.51;98.30
8318;BME280;4196;48.926;8.964;2023-06-26T00:14:20;98932.81;;;15.39;99.07
8318;BME280;4196;48.926;8.964;2023-06-26T00:17:07;98945.03;;;15.38;99.14
8318;BME280;4196;48.926;8.964;2023-06-26T00:19:53;98939.19;;;15.29;99.39
8318;BME280;4196;48.926;8.964;2023-06-26T00:22:39;98943.63;;;15.25;99.75
8318;BME280;4196;48.926;8.964;2023-06-26T00:25:29;98916.13;;;15.10;99.85
8318;BME280;4196;48.926;8.964;2023-06-26T00:28:15;98922.88;;;15.19;100.00
8318;BME280;4196;48.926;8.964;2023-06-26T00:31:02;98926.41;;;15.16;100.00
8318;BME280;4196;48.926;8.964;2023-06-26T00:33:48;98932.53;;;15.15;100.00
8318;BME280;4196;48.926;8.964;2023-06-26T00:36:35;98924.03;;;15.06;100.00
8318;BME280;4196;48.926;8.964;2023-06-26T00:39:22;98946.47;;;15.14;100.00
8318;BME280;4196;48.926;8.964;2023-06-26T00:42:12;98929.31;;;15.04;100.00
8318;BME280;4196;48.926;8.964;2023-06-26T00:44:58;98936.28;;;15.02;100.00
8318;BME280;4196;48.926;8.964;2023-06-26T00:47:45;98935.72;;;14.89;100.00
8318;BME280;4196;48.926;8.964;2023-06-26T00:50:32;98938.09;;;15.00;100.00
8318;BME280;4196;48.926;8.964;2023-06-26T00:53:19;98920.16;;;14.86;100.00
8318;BME280;4196;48.926;8.964;2023-06-26T00:56:05;98947.78;;;14.95;100.00
8318;BME280;4196;48.926;8.964;2023-06-26T00:58:55;98923.78;;;14.79;100.00
8318;BME280;4196;48.926;8.964;2023-06-26T01:01:45;98916.91;;;14.75;100.00
8318;BME280;4196;48.926;8.964;2023-06-26T01:04:32;98930.75;;;14.79;100.00
8318;BME280;4196;48.926;8.964;2023-06-26T01:11:51;98923.88;;;14.74;100.00
8318;BME280;4196;48.926;8.964;2023-06-26T01:14:37;98948.03;;;14.83;100.00
8318;BME280;4196;48.926;8.964;2023-06-26T01:17:24;98911.03;;;14.65;100.00
8318;BME280;4196;48.926;8.964;2023-06-26T01:20:12;98915.28;;;14.71;100.00
8318;BME280;4196;48.926;8.964;2023-06-26T01:26:14;98943.91;;;14.72;100.00
8318;BME280;4196;48.926;8.964;2023-06-26T01:29:04;98934.44;;;14.68;100.00
8318;BME280;4196;48.926;8.964;2023-06-26T01:31:53;98931.06;;;14.63;100.00
8318;BME280;4196;48.926;8.964;2023-06-26T01:34:39;98933.81;;;14.57;100.00
8318;BME280;4196;48.926;8.964;2023-06-26T01:37:26;98920.09;;;14.46;100.00
8318;BME280;4196;48.926;8.964;2023-06-26T01:40:12;98933.06;;;14.50;100.00
8318;BME280;4196;48.926;8.964;2023-06-26T01:42:59;98918.47;;;14.42;100.00
8318;BME280;4196;48.926;8.964;2023-06-26T01:45:48;98903.09;;;14.30;100.00
8318;BME280;4196;48.926;8.964;2023-06-26T01:48:55;98917.72;;;14.35;100.00
8318;BME280;4196;48.926;8.964;2023-06-26T01:55:21;98920.47;;;14.27;100.00
8318;BME280;4196;48.926;8.964;2023-06-26T01:58:10;98920.56;;;14.23;100.00
8318;BME280;4196;48.926;8.964;2023-06-26T02:05:47;98914.03;;;14.02;100.00
8318;BME280;4196;48.926;8.964;2023-06-26T02:08:34;98901.06;;;13.99;100.00
8318;BME280;4196;48.926;8.964;2023-06-26T02:11:20;98908.88;;;13.99;100.00
8318;BME280;4196;48.926;8.964;2023-06-26T02:14:07;98923.63;;;14.00;100.00
8318;BME280;4196;48.926;8.964;2023-06-26T02:16:55;98862.72;;;13.62;100.00
8318;BME280;4196;48.926;8.964;2023-06-26T02:19:42;98906.56;;;13.85;100.00
8318;BME280;4196;48.926;8.964;2023-06-26T02:22:33;98916.00;;;13.89;100.00
8318;BME280;4196;48.926;8.964;2023-06-26T02:25:20;98921.19;;;13.91;100.00
8318;BME280;4196;48.926;8.964;2023-06-26T02:28:06;98914.38;;;13.84;100.00
8318;BME280;4196;48.926;8.964;2023-06-26T02:30:52;98927.28;;;13.90;100.00
8318;BME280;4196;48.926;8.964;2023-06-26T02:33:41;98918.75;;;13.82;100.00
8318;BME280;4196;48.926;8.964;2023-06-26T02:36:27;98931.63;;;13.88;100.00
8318;BME280;4196;48.926;8.964;2023-06-26T02:39:14;98923.97;;;13.82;100.00
8318;BME280;4196;48.926;8.964;2023-06-26T02:42:01;98909.28;;;13.77;100.00
8318;BME280;4196;48.926;8.964;2023-06-26T02:44:47;98911.94;;;13.73;100.00
8318;BME280;4196;48.926;8.964;2023-06-26T02:47:34;98907.78;;;13.64;100.00
8318;BME280;4196;48.926;8.964;2023-06-26T02:50:21;98919.91;;;13.65;100.00
8318;BME280;4196;48.926;8.964;2023-06-26T02:53:32;98887.28;;;13.46;100.00
8318;BME280;4196;48.926;8.964;2023-06-26T02:56:19;98895.97;;;13.45;100.00
8318;BME280;4196;48.926;8.964;2023-06-26T02:59:06;98890.88;;;13.39;100.00
8318;BME280;4196;48.926;8.964;2023-06-26T03:01:52;98909.75;;;13.50;100.00
8318;BME280;4196;48.926;8.964;2023-06-26T03:04:44;98932.28;;;13.51;100.00
8318;BME280;4196;48.926;8.964;2023-06-26T03:07:33;98927.16;;;13.46;100.00
8318;BME280;4196;48.926;8.964;2023-06-26T03:10:20;98922.84;;;13.45;100.00
8318;BME280;4196;48.926;8.964;2023-06-26T03:13:07;98928.84;;;13.49;100.00
8318;BME280;4196;48.926;8.964;2023-06-26T03:15:53;98900.59;;;13.27;100.00
8318;BME280;4196;48.926;8.964;2023-06-26T03:18:40;98923.78;;;13.40;100.00
8318;BME280;4196;48.926;8.964;2023-06-26T03:21:27;98909.16;;;13.34;100.00
8318;BME280;4196;48.926;8.964;2023-06-26T03:24:13;98896.34;;;13.20;100.00
8318;BME280;4196;48.926;8.964;2023-06-26T03:27:00;98923.75;;;13.43;100.00
8318;BME280;4196;48.926;8.964;2023-06-26T03:29:46;98913.50;;;13.34;100.00
8318;BME280;4196;48.926;8.964;2023-06-26T03:32:33;98913.44;;;13.38;100.00
8318;BME280;4196;48.926;8.964;2023-06-26T03:35:19;98931.47;;;13.47;100.00
8318;BME280;4196;48.926;8.964;2023-06-26T03:38:06;98934.91;;;13.49;100.00
8318;BME280;4196;48.926;8.964;2023-06-26T03:40:53;98924.59;;;13.43;100.00
8318;BME280;4196;48.926;8.964;2023-06-26T03:43:41;98940.97;;;13.50;100.00
8318;BME280;4196;48.926;8.964;2023-06-26T03:46:34;98922.91;;;13.42;100.00
8318;BME280;4196;48.926;8.964;2023-06-26T03:49:20;98923.69;;;13.46;100.00
8318;BME280;4196;48.926;8.964;2023-06-26T03:52:07;98924.44;;;13.54;100.00
8318;BME280;4196;48.926;8.964;2023-06-26T03:54:53;98867.72;;;13.23;100.00
8318;BME280;4196;48.926;8.964;2023-06-26T03:57:39;98935.47;;;13.68;100.00
8318;BME280;4196;48.926;8.964;2023-06-26T04:00:28;98903.66;;;13.52;100.00
8318;BME280;4196;48.926;8.964;2023-06-26T04:03:15;98913.88;;;13.62;100.00
8318;BME280;4196;48.926;8.964;2023-06-26T04:06:01;98894.88;;;13.58;100.00
8318;BME280;4196;48.926;8.964;2023-06-26T04:08:48;98936.03;;;13.84;100.00
8318;BME280;4196;48.926;8.964;2023-06-26T04:11:34;98932.53;;;13.87;100.00
8318;BME280;4196;48.926;8.964;2023-06-26T04:14:21;98935.03;;;13.93;100.00
8318;BME280;4196;48.926;8.964;2023-06-26T04:17:08;98914.38;;;13.84;100.00
8318;BME280;4196;48.926;8.964;2023-06-26T04:19:54;98915.97;;;13.91;100.00
8318;BME280;4196;48.926;8.964;2023-06-26T04:22:41;98930.44;;;14.07;100.00
8318;BME280;4196;48.926;8.964;2023-06-26T04:25:27;98934.53;;;14.19;100.00
8318;BME280;4196;48.926;8.964;2023-06-26T04:28:15;98948.16;;;14.33;100.00
8318;BME280;4196;48.926;8.964;2023-06-26T04:31:01;98936.75;;;14.39;100.00
8318;BME280;4196;48.926;8.964;2023-06-26T04:33:49;98942.56;;;14.53;100.00
8318;BME280;4196;48.926;8.964;2023-06-26T04:36:37;98923.44;;;14.54;100.00
8318;BME280;4196;48.926;8.964;2023-06-26T04:39:25;98919.69;;;14.67;100.00
8318;BME280;4196;48.926;8.964;2023-06-26T04:42:11;98943.97;;;15.10;100.00
8318;BME280;4196;48.926;8.964;2023-06-26T04:44:58;98938.34;;;15.62;100.00
8318;BME280;4196;48.926;8.964;2023-06-26T04:47:45;98937.91;;;16.46;100.00
8318;BME280;4196;48.926;8.964;2023-06-26T04:50:32;98935.72;;;17.20;100.00
8318;BME280;4196;48.926;8.964;2023-06-26T04:53:20;98928.88;;;17.69;94.80
8318;BME280;4196;48.926;8.964;2023-06-26T04:56:07;98925.47;;;17.93;91.45
8318;BME280;4196;48.926;8.964;2023-06-26T04:58:53;98931.19;;;17.79;90.11
8318;BME280;4196;48.926;8.964;2023-06-26T05:01:40;98950.31;;;17.81;90.97
8318;BME280;4196;48.926;8.964;2023-06-26T05:04:27;98901.78;;;17.70;91.61
8318;BME280;4196;48.926;8.964;2023-06-26T05:07:13;98951.53;;;18.70;89.47
8318;BME280;4196;48.926;8.964;2023-06-26T05:10:00;98925.59;;;19.73;82.84
8318;BME280;4196;48.926;8.964;2023-06-26T05:12:46;98928.91;;;21.15;73.66
8318;BME280;4196;48.926;8.964;2023-06-26T05:15:33;98939.28;;;22.90;63.95
8318;BME280;4196;48.926;8.964;2023-06-26T05:18:19;98937.44;;;23.86;59.32
8318;BME280;4196;48.926;8.964;2023-06-26T05:21:06;98932.63;;;25.21;53.50
8318;BME280;4196;48.926;8.964;2023-06-26T05:23:56;98943.03;;;25.24;52.12
8318;BME280;4196;48.926;8.964;2023-06-26T05:26:42;98951.03;;;25.64;51.24
8318;BME280;4196;48.926;8.964;2023-06-26T05:29:30;98940.47;;;26.55;48.98
8318;BME280;4196;48.926;8.964;2023-06-26T05:32:17;98955.78;;;27.01;48.17
8318;BME280;4196;48.926;8.964;2023-06-26T05:35:04;98933.88;;;26.22;47.01
8318;BME280;4196;48.926;8.964;2023-06-26T05:37:51;98957.28;;;27.05;46.00
8318;BME280;4196;48.926;8.964;2023-06-26T05:40:39;98950.59;;;27.12;45.47
8318;BME280;4196;48.926;8.964;2023-06-26T05:43:27;98936.63;;;28.05;43.91
8318;BME280;4196;48.926;8.964;2023-06-26T05:46:14;98924.53;;;28.01;44.27
8318;BME280;4196;48.926;8.964;2023-06-26T05:49:01;98938.97;;;28.21;43.73
8318;BME280;4196;48.926;8.964;2023-06-26T05:51:48;98906.97;;;28.09;43.35
8318;BME280;4196;48.926;8.964;2023-06-26T05:54:35;98952.34;;;28.65;41.78
8318;BME280;4196;48.926;8.964;2023-06-26T05:57:21;98935.13;;;28.36;42.33
8318;BME280;4196;48.926;8.964;2023-06-26T06:00:08;98911.72;;;27.70;41.62
8318;BME280;4196;48.926;8.964;2023-06-26T06:03:01;98952.94;;;27.04;45.66
8318;BME280;4196;48.926;8.964;2023-06-26T06:05:48;98940.41;;;26.93;44.91
8318;BME280;4196;48.926;8.964;2023-06-26T06:08:34;98934.59;;;25.99;46.77
8318;BME280;4196;48.926;8.964;2023-06-26T06:11:21;98925.03;;;25.29;47.81
8318;BME280;4196;48.926;8.964;2023-06-26T06:14:08;98941.59;;;24.63;50.88
8318;BME280;4196;48.926;8.964;2023-06-26T06:16:54;98951.50;;;24.31;53.83
8318;BME280;4196;48.926;8.964;2023-06-26T06:19:41;98945.41;;;23.54;57.24
8318;BME280;4196;48.926;8.964;2023-06-26T06:22:27;98947.66;;;23.30;58.24
8318;BME280;4196;48.926;8.964;2023-06-26T06:25:14;98959.44;;;23.09;59.89
8318;BME280;4196;48.926;8.964;2023-06-26T06:28:01;98952.56;;;22.89;61.99
8318;BME280;4196;48.926;8.964;2023-06-26T06:30:48;98968.34;;;22.90;61.98
8318;BME280;4196;48.926;8.964;2023-06-26T06:33:34;98961.38;;;22.56;63.56
8318;BME280;4196;48.926;8.964;2023-06-26T06:36:21;98951.94;;;22.68;59.43
8318;BME280;4196;48.926;8.964;2023-06-26T06:39:07;98961.47;;;23.04;57.31
8318;BME280;4196;48.926;8.964;2023-06-26T06:41:54;98958.56;;;22.93;59.09
8318;BME280;4196;48.926;8.964;2023-06-26T06:44:40;98951.44;;;22.95;56.51
8318;BME280;4196;48.926;8.964;2023-06-26T06:47:27;98963.84;;;22.93;58.50
8318;BME280;4196;48.926;8.964;2023-06-26T06:50:13;98955.50;;;23.00;60.16
8318;BME280;4196;48.926;8.964;2023-06-26T06:53:02;98956.19;;;23.04;58.83
8318;BME280;4196;48.926;8.964;2023-06-26T06:55:49;98937.06;;;23.30;56.42
8318;BME280;4196;48.926;8.964;2023-06-26T06:58:35;98929.91;;;23.48;58.05
8318;BME280;4196;48.926;8.964;2023-06-26T07:01:22;98946.09;;;23.58;58.42
8318;BME280;4196;48.926;8.964;2023-06-26T07:04:08;98943.94;;;23.65;54.99
8318;BME280;4196;48.926;8.964;2023-06-26T07:06:55;98933.00;;;23.86;57.76
8318;BME280;4196;48.926;8.964;2023-06-26T07:09:42;98932.09;;;24.02;57.84
8318;BME280;4196;48.926;8.964;2023-06-26T07:12:28;98927.22;;;24.39;50.52
8318;BME280;4196;48.926;8.964;2023-06-26T07:15:15;98930.56;;;24.42;52.15
8318;BME280;4196;48.926;8.964;2023-06-26T07:18:01;98950.00;;;24.70;52.34
8318;BME280;4196;48.926;8.964;2023-06-26T07:20:48;98941.22;;;24.69;51.84
8318;BME280;4196;48.926;8.964;2023-06-26T07:23:34;98927.19;;;24.81;48.45
8318;BME280;4196;48.926;8.964;2023-06-26T07:26:21;98944.00;;;25.09;49.28
8318;BME280;4196;48.926;8.964;2023-06-26T07:29:28;98923.75;;;25.22;50.05
8318;BME280;4196;48.926;8.964;2023-06-26T07:32:15;98907.19;;;25.19;49.64
8318;BME280;4196;48.926;8.964;2023-06-26T07:35:01;98930.84;;;25.49;46.43
8318;BME280;4196;48.926;8.964;2023-06-26T07:37:48;98915.84;;;25.75;45.67
8318;BME280;4196;48.926;8.964;2023-06-26T07:40:35;98921.88;;;25.77;48.56
8318;BME280;4196;48.926;8.964;2023-06-26T07:43:21;98931.41;;;25.94;45.65
8318;BME280;4196;48.926;8.964;2023-06-26T07:46:10;98935.66;;;26.09;45.28
8318;BME280;4196;48.926;8.964;2023-06-26T07:48:56;98929.31;;;26.12;46.03
8318;BME280;4196;48.926;8.964;2023-06-26T07:51:43;98945.00;;;26.27;45.34
8318;BME280;4196;48.926;8.964;2023-06-26T07:54:30;98927.41;;;26.26;44.81
8318;BME280;4196;48.926;8.964;2023-06-26T07:57:16;98886.81;;;25.99;46.44
8318;BME280;4196;48.926;8.964;2023-06-26T08:00:03;98923.13;;;26.24;47.97
8318;BME280;4196;48.926;8.964;2023-06-26T08:02:59;98951.72;;;26.46;49.56
8318;BME280;4196;48.926;8.964;2023-06-26T08:05:46;98948.22;;;26.58;47.07
8318;BME280;4196;48.926;8.964;2023-06-26T08:08:32;98951.31;;;27.02;45.14
8318;BME280;4196;48.926;8.964;2023-06-26T08:11:19;98929.34;;;26.87;47.40
8318;BME280;4196;48.926;8.964;2023-06-26T08:14:05;98936.22;;;27.15;46.74
8318;BME280;4196;48.926;8.964;2023-06-26T08:16:52;98925.44;;;27.29;46.18
8318;BME280;4196;48.926;8.964;2023-06-26T08:19:38;98933.81;;;27.36;44.71
8318;BME280;4196;48.926;8.964;2023-06-26T08:22:24;98924.53;;;27.65;44.35
8318;BME280;4196;48.926;8.964;2023-06-26T08:25:11;98902.34;;;27.65;44.05
8318;BME280;4196;48.926;8.964;2023-06-26T08:27:58;98911.31;;;27.64;46.32
8318;BME280;4196;48.926;8.964;2023-06-26T08:30:44;98912.97;;;27.78;45.51
8318;BME280;4196;48.926;8.964;2023-06-26T08:33:31;98908.91;;;27.72;45.16
8318;BME280;4196;48.926;8.964;2023-06-26T08:36:17;98901.78;;;27.73;42.94
8318;BME280;4196;48.926;8.964;2023-06-26T08:39:04;98896.28;;;27.87;42.86
8318;BME280;4196;48.926;8.964;2023-06-26T08:41:52;98908.66;;;27.88;41.86
8318;BME280;4196;48.926;8.964;2023-06-26T08:44:39;98885.72;;;27.74;42.15
8318;BME280;4196;48.926;8.964;2023-06-26T08:47:48;98921.19;;;28.21;40.86
8318;BME280;4196;48.926;8.964;2023-06-26T08:50:38;98919.97;;;28.36;41.19
8318;BME280;4196;48.926;8.964;2023-06-26T08:53:40;98932.50;;;28.47;40.23
8318;BME280;4196;48.926;8.964;2023-06-26T08:56:34;98927.41;;;28.44;40.90
8318;BME280;4196;48.926;8.964;2023-06-26T08:59:21;98911.41;;;28.44;40.78
8318;BME280;4196;48.926;8.964;2023-06-26T09:02:08;98932.50;;;28.47;40.66
8318;BME280;4196;48.926;8.964;2023-06-26T09:04:55;98924.25;;;28.39;40.57
8318;BME280;4196;48.926;8.964;2023-06-26T09:07:42;98935.25;;;28.46;41.73
8318;BME280;4196;48.926;8.964;2023-06-26T09:10:29;98921.34;;;28.53;42.04
8318;BME280;4196;48.926;8.964;2023-06-26T09:13:16;98922.06;;;28.67;41.42
8318;BME280;4196;48.926;8.964;2023-06-26T09:16:15;98919.03;;;28.71;41.33
8318;BME280;4196;48.926;8.964;2023-06-26T09:19:02;98941.16;;;28.94;40.33
8318;BME280;4196;48.926;8.964;2023-06-26T09:21:50;98928.47;;;28.86;41.46
8318;BME280;4196;48.926;8.964;2023-06-26T09:24:38;98926.19;;;28.82;40.71
8318;BME280;4196;48.926;8.964;2023-06-26T09:27:25;98933.69;;;28.77;40.86
8318;BME280;4196;48.926;8.964;2023-06-26T09:30:12;98900.00;;;28.31;41.91
8318;BME280;4196;48.926;8.964;2023-06-26T09:33:16;98945.81;;;28.47;42.24
8318;BME280;4196;48.926;8.964;2023-06-26T09:36:07;98946.28;;;28.52;42.18
8318;BME280;4196;48.926;8.964;2023-06-26T09:38:53;98930.06;;;28.55;41.68
8318;BME280;4196;48.926;8.964;2023-06-26T09:41:43;98924.00;;;28.42;43.33
8318;BME280;4196;48.926;8.964;2023-06-26T09:44:31;98948.09;;;28.63;42.85
8318;BME280;4196;48.926;8.964;2023-06-26T09:47:21;98945.91;;;28.79;42.35
8318;BME280;4196;48.926;8.964;2023-06-26T09:50:21;98943.00;;;28.82;42.16
8318;BME280;4196;48.926;8.964;2023-06-26T09:53:13;98931.28;;;28.62;41.95
8318;BME280;4196;48.926;8.964;2023-06-26T09:56:05;98936.38;;;28.65;42.01
8318;BME280;4196;48.926;8.964;2023-06-26T09:58:52;98950.91;;;28.84;42.09
8318;BME280;4196;48.926;8.964;2023-06-26T10:01:45;98945.06;;;28.90;41.71
8318;BME280;4196;48.926;8.964;2023-06-26T10:04:34;98943.59;;;28.86;40.87
8318;BME280;4196;48.926;8.964;2023-06-26T10:07:21;98947.47;;;28.93;40.88
8318;BME280;4196;48.926;8.964;2023-06-26T10:10:10;98937.44;;;28.85;40.88
8318;BME280;4196;48.926;8.964;2023-06-26T10:13:07;98957.44;;;28.91;41.20
8318;BME280;4196;48.926;8.964;2023-06-26T10:15:55;98941.44;;;29.13;41.79
8318;BME280;4196;48.926;8.964;2023-06-26T10:18:44;98943.00;;;29.27;41.95
8318;BME280;4196;48.926;8.964;2023-06-26T10:21:31;98962.53;;;29.05;42.17
8318;BME280;4196;48.926;8.964;2023-06-26T10:24:22;98937.91;;;28.79;42.38
8318;BME280;4196;48.926;8.964;2023-06-26T10:27:21;98957.16;;;28.94;43.90
8318;BME280;4196;48.926;8.964;2023-06-26T10:30:18;98967.97;;;28.81;43.64
8318;BME280;4196;48.926;8.964;2023-06-26T10:33:07;98963.97;;;28.53;43.80
8318;BME280;4196;48.926;8.964;2023-06-26T10:35:54;98933.50;;;28.11;44.51
8318;BME280;4196;48.926;8.964;2023-06-26T10:39:03;98967.31;;;28.33;45.28
8318;BME280;4196;48.926;8.964;2023-06-26T10:41:54;98958.31;;;28.23;45.64
8318;BME280;4196;48.926;8.964;2023-06-26T10:44:51;98963.91;;;28.31;45.89
8318;BME280;4196;48.926;8.964;2023-06-26T10:47:39;98974.63;;;28.64;46.25
8318;BME280;4196;48.926;8.964;2023-06-26T10:50:30;98983.81;;;28.60;46.69
8318;BME280;4196;48.926;8.964;2023-06-26T10:56:13;98944.84;;;28.59;46.12
8318;BME280;4196;48.926;8.964;2023-06-26T10:59:20;98966.75;;;28.52;47.16
8318;BME280;4196;48.926;8.964;2023-06-26T11:02:07;98969.91;;;28.68;46.49
8318;BME280;4196;48.926;8.964;2023-06-26T11:04:59;98983.00;;;28.71;46.35
8318;BME280;4196;48.926;8.964;2023-06-26T11:08:05;98979.25;;;28.62;46.37
8318;BME280;4196;48.926;8.964;2023-06-26T11:10:53;98967.97;;;28.59;46.89
8318;BME280;4196;48.926;8.964;2023-06-26T11:13:41;98976.09;;;28.91;45.99
8318;BME280;4196;48.926;8.964;2023-06-26T11:16:29;98915.53;;;28.59;45.16
8318;BME280;4196;48.926;8.964;2023-06-26T11:19:17;98970.78;;;28.69;46.72
8318;BME280;4196;48.926;8.964;2023-06-26T11:22:06;98986.25;;;28.86;46.26
8318;BME280;4196;48.926;8.964;2023-06-26T11:24:53;98995.00;;;28.77;46.22
8318;BME280;4196;48.926;8.964;2023-06-26T11:27:41;99010.38;;;28.62;47.41
8318;BME280;4196;48.926;8.964;2023-06-26T11:30:28;99009.16;;;28.55;48.07
8318;BME280;4196;48.926;8.964;2023-06-26T11:33:15;98994.97;;;28.54;47.99
8318;BME280;4196;48.926;8.964;2023-06-26T11:36:08;99014.84;;;28.61;47.40
8318;BME280;4196;48.926;8.964;2023-06-26T11:38:59;99024.56;;;28.74;48.20
8318;BME280;4196;48.926;8.964;2023-06-26T11:41:46;98975.59;;;28.41;47.68
8318;BME280;4196;48.926;8.964;2023-06-26T11:44:40;99018.22;;;28.52;48.09
8318;BME280;4196;48.926;8.964;2023-06-26T11:47:27;99003.69;;;28.45;49.34
8318;BME280;4196;48.926;8.964;2023-06-26T11:50:17;99006.88;;;28.73;48.08
8318;BME280;4196;48.926;8.964;2023-06-26T11:53:03;99007.81;;;28.83;48.07
8318;BME280;4196;48.926;8.964;2023-06-26T11:55:51;99023.72;;;28.84;49.39
8318;BME280;4196;48.926;8.964;2023-06-26T12:01:44;99007.97;;;28.35;48.68
8318;BME280;4196;48.926;8.964;2023-06-26T12:04:31;99031.06;;;28.23;49.33
8318;BME280;4196;48.926;8.964;2023-06-26T12:07:18;99003.69;;;28.10;49.05
8318;BME280;4196;48.926;8.964;2023-06-26T12:10:06;99006.25;;;28.23;49.82
8318;BME280;4196;48.926;8.964;2023-06-26T12:12:52;98980.09;;;28.16;50.50
8318;BME280;4196;48.926;8.964;2023-06-26T12:15:39;98960.53;;;28.29;48.96
8318;BME280;4196;48.926;8.964;2023-06-26T12:18:25;98976.81;;;28.48;48.90
8318;BME280;4196;48.926;8.964;2023-06-26T12:21:45;99020.44;;;28.92;48.12
8318;BME280;4196;48.926;8.964;2023-06-26T12:24:34;98997.16;;;28.94;49.10
8318;BME280;4196;48.926;8.964;2023-06-26T12:27:22;99016.56;;;29.19;47.92
8318;BME280;4196;48.926;8.964;2023-06-26T12:30:08;99003.47;;;29.27;47.60
8318;BME280;4196;48.926;8.964;2023-06-26T12:32:55;99008.53;;;29.41;45.34
8318;BME280;4196;48.926;8.964;2023-06-26T12:35:42;99015.31;;;29.45;45.18
8318;BME280;4196;48.926;8.964;2023-06-26T12:38:35;99003.91;;;29.54;44.66
8318;BME280;4196;48.926;8.964;2023-06-26T12:41:25;99018.44;;;29.73;44.22
8318;BME280;4196;48.926;8.964;2023-06-26T12:44:22;99029.31;;;29.81;44.08
8318;BME280;4196;48.926;8.964;2023-06-26T12:47:11;99023.72;;;29.84;43.01
8318;BME280;4196;48.926;8.964;2023-06-26T12:50:05;99011.88;;;29.77;43.13
8318;BME280;4196;48.926;8.964;2023-06-26T12:52:51;99020.13;;;29.74;41.96
8318;BME280;4196;48.926;8.964;2023-06-26T12:55:38;99009.44;;;29.74;42.60
8318;BME280;4196;48.926;8.964;2023-06-26T12:58:25;99016.91;;;29.91;41.81
8318;BME280;4196;48.926;8.964;2023-06-26T13:01:11;99013.16;;;29.82;41.76
8318;BME280;4196;48.926;8.964;2023-06-26T13:04:00;99009.88;;;29.90;41.97
8318;BME280;4196;48.926;8.964;2023-06-26T13:06:47;98992.38;;;29.97;40.90
8318;BME280;4196;48.926;8.964;2023-06-26T13:09:34;99014.13;;;30.14;40.17
8318;BME280;4196;48.926;8.964;2023-06-26T13:12:21;98997.22;;;30.24;39.12
8318;BME280;4196;48.926;8.964;2023-06-26T13:15:08;99018.19;;;30.29;38.86
8318;BME280;4196;48.926;8.964;2023-06-26T13:17:54;99019.09;;;30.18;38.76
8318;BME280;4196;48.926;8.964;2023-06-26T13:20:41;98957.00;;;29.84;39.04
8318;BME280;4196;48.926;8.964;2023-06-26T13:23:28;98983.53;;;30.39;37.55
8318;BME280;4196;48.926;8.964;2023-06-26T13:26:14;98997.94;;;30.47;37.86
8318;BME280;4196;48.926;8.964;2023-06-26T13:29:20;99003.66;;;30.64;37.47
8318;BME280;4196;48.926;8.964;2023-06-26T13:32:07;98978.69;;;30.53;35.73
8318;BME280;4196;48.926;8.964;2023-06-26T13:34:53;98980.81;;;30.60;38.22
8318;BME280;4196;48.926;8.964;2023-06-26T13:37:41;98971.03;;;30.70;35.58
8318;BME280;4196;48.926;8.964;2023-06-26T13:40:27;99006.44;;;30.83;35.30
8318;BME280;4196;48.926;8.964;2023-06-26T13:43:14;99004.75;;;30.82;36.77
8318;BME280;4196;48.926;8.964;2023-06-26T13:46:01;98982.72;;;30.69;36.85
8318;BME280;4196;48.926;8.964;2023-06-26T13:48:49;98984.91;;;30.75;36.27
8318;BME280;4196;48.926;8.964;2023-06-26T13:51:35;98984.03;;;30.74;36.98
8318;BME280;4196;48.926;8.964;2023-06-26T13:54:22;98987.41;;;30.76;35.46
8318;BME280;4196;48.926;8.964;2023-06-26T13:57:09;99006.00;;;30.78;34.77
8318;BME280;4196;48.926;8.964;2023-06-26T13:59:55;98983.78;;;30.56;35.89
8318;BME280;4196;48.926;8.964;2023-06-26T14:02:42;98982.03;;;30.46;35.86
8318;BME280;4196;48.926;8.964;2023-06-26T14:05:33;98998.19;;;30.44;36.14
8318;BME280;4196;48.926;8.964;2023-06-26T14:08:20;98983.88;;;30.45;36.36
8318;BME280;4196;48.926;8.964;2023-06-26T14:11:06;98994.06;;;30.61;36.21
8318;BME280;4196;48.926;8.964;2023-06-26T14:13:53;98998.59;;;30.70;36.11
8318;BME280;4196;48.926;8.964;2023-06-26T14:16:40;98984.44;;;30.49;36.01
8318;BME280;4196;48.926;8.964;2023-06-26T14:19:28;98990.91;;;30.46;35.48
8318;BME280;4196;48.926;8.964;2023-06-26T14:22:14;99008.88;;;30.65;35.81
8318;BME280;4196;48.926;8.964;2023-06-26T14:25:00;98985.66;;;30.45;35.08
8318;BME280;4196;48.926;8.964;2023-06-26T14:27:47;98991.22;;;30.32;36.14
8318;BME280;4196;48.926;8.964;2023-06-26T14:30:33;98998.91;;;29.93;37.51
8318;BME280;4196;48.926;8.964;2023-06-26T14:33:20;99007.25;;;29.79;37.12
8318;BME280;4196;48.926;8.964;2023-06-26T14:36:07;99002.81;;;29.68;37.53
8318;BME280;4196;48.926;8.964;2023-06-26T14:38:53;99006.31;;;29.69;36.97
8318;BME280;4196;48.926;8.964;2023-06-26T14:41:41;99002.06;;;29.55;36.66
8318;BME280;4196;48.926;8.964;2023-06-26T14:44:28;99007.53;;;29.53;38.36
8318;BME280;4196;48.926;8.964;2023-06-26T14:47:16;99018.44;;;29.73;36.51
8318;BME280;4196;48.926;8.964;2023-06-26T14:50:03;98981.13;;;29.50;37.63
8318;BME280;4196;48.926;8.964;2023-06-26T14:52:50;99010.47;;;29.62;38.68
8318;BME280;4196;48.926;8.964;2023-06-26T14:55:36;99005.13;;;29.62;37.41
8318;BME280;4196;48.926;8.964;2023-06-26T14:58:23;98994.22;;;29.53;37.33
8318;BME280;4196;48.926;8.964;2023-06-26T15:01:10;99012.59;;;29.56;36.64
8318;BME280;4196;48.926;8.964;2023-06-26T15:03:59;99011.94;;;29.43;38.31
8318;BME280;4196;48.926;8.964;2023-06-26T15:06:45;99016.66;;;29.40;38.21
8318;BME280;4196;48.926;8.964;2023-06-26T15:09:32;99010.97;;;29.33;37.78
8318;BME280;4196;48.926;8.964;2023-06-26T15:12:19;99011.25;;;29.07;38.08
8318;BME280;4196;48.926;8.964;2023-06-26T15:15:06;99007.00;;;29.05;39.77
8318;BME280;4196;48.926;8.964;2023-06-26T15:17:54;99017.56;;;29.06;38.07
8318;BME280;4196;48.926;8.964;2023-06-26T15:20:41;99027.16;;;29.09;37.88
8318;BME280;4196;48.926;8.964;2023-06-26T15:23:28;99016.09;;;28.91;36.76
8318;BME280;4196;48.926;8.964;2023-06-26T15:26:14;99019.56;;;28.58;38.56
8318;BME280;4196;48.926;8.964;2023-06-26T15:29:02;99010.06;;;28.42;38.68
8318;BME280;4196;48.926;8.964;2023-06-26T15:31:48;99020.88;;;28.41;38.44
8318;BME280;4196;48.926;8.964;2023-06-26T15:34:35;99000.69;;;28.14;38.88